createdAt,value
2018-11-11T00:00:03.135Z,96.72
2018-11-11T00:02:31.587Z,96.77
2018-11-11T00:05:00.124Z,96.88
2018-11-11T00:07:28.763Z,96.65
2018-11-11T00:09:57.225Z,96.13
2018-11-11T00:12:25.745Z,96.69
2018-11-11T00:14:54.285Z,97.08
2018-11-11T00:17:22.814Z,97.33
2018-11-11T00:19:51.323Z,97.48
2018-11-11T00:22:19.826Z,97.17
2018-11-11T00:24:48.398Z,97.50
2018-11-11T00:27:16.984Z,96.85
2018-11-11T00:29:45.487Z,96.95
2018-11-11T00:32:13.973Z,96.74
2018-11-11T00:34:42.512Z,96.44
2018-11-11T00:37:11.046Z,96.40
2018-11-11T00:39:39.582Z,96.62
2018-11-11T00:42:08.105Z,96.37
2018-11-11T00:44:36.641Z,96.11
2018-11-11T00:47:05.503Z,95.78
2018-11-11T00:49:34.142Z,95.67
2018-11-11T00:52:02.681Z,95.85
2018-11-11T00:54:31.226Z,95.61
2018-11-11T00:56:59.770Z,96.09
2018-11-11T00:59:28.306Z,96.11
2018-11-11T01:01:56.838Z,96.82
2018-11-11T01:04:26.341Z,96.09
2018-11-11T01:06:54.936Z,95.86
2018-11-11T01:09:23.429Z,96.30
2018-11-11T01:11:52.004Z,95.66
2018-11-11T01:14:20.612Z,95.83
2018-11-11T01:16:49.169Z,95.24
2018-11-11T01:19:17.866Z,95.42
2018-11-11T01:21:46.445Z,95.47
2018-11-11T01:24:14.985Z,95.31
2018-11-11T01:26:43.623Z,95.55
2018-11-11T01:29:12.215Z,95.35
2018-11-11T01:31:40.716Z,95.43
2018-11-11T01:34:09.258Z,96.16
2018-11-11T01:36:37.803Z,96.05
2018-11-11T01:39:07.220Z,96.61
2018-11-11T01:41:35.725Z,96.82
2018-11-11T01:44:04.600Z,96.45
2018-11-11T01:46:33.122Z,96.05
2018-11-11T01:49:01.764Z,95.65
2018-11-11T01:51:30.331Z,96.69
2018-11-11T01:53:58.979Z,96.07
2018-11-11T01:56:27.493Z,95.88
2018-11-11T01:58:55.981Z,95.75
2018-11-11T02:01:24.637Z,95.60
2018-11-11T02:03:53.102Z,95.26
2018-11-11T02:06:21.647Z,94.85
2018-11-11T02:08:50.192Z,94.92
2018-11-11T02:11:18.801Z,95.33
2018-11-11T02:13:47.482Z,95.28
2018-11-11T02:16:15.986Z,95.15
2018-11-11T02:18:44.619Z,95.33
2018-11-11T02:21:13.200Z,95.93
2018-11-11T02:23:41.587Z,95.57
2018-11-11T02:26:10.105Z,96.32
2018-11-11T02:28:38.595Z,95.95
2018-11-11T02:31:07.337Z,95.75
2018-11-11T02:33:35.973Z,96.04
2018-11-11T02:36:04.594Z,95.71
2018-11-11T02:38:33.098Z,95.75
2018-11-11T02:41:01.609Z,95.50
2018-11-11T02:43:30.082Z,95.72
2018-11-11T02:45:58.612Z,95.62
2018-11-11T02:48:27.186Z,95.03
2018-11-11T02:50:55.692Z,94.99
2018-11-11T02:53:24.343Z,95.07
2018-11-11T02:55:52.876Z,95.21
2018-11-11T02:58:21.362Z,95.12
2018-11-11T03:00:49.960Z,95.00
2018-11-11T03:03:18.518Z,95.11
2018-11-11T03:05:47.036Z,94.92
2018-11-11T03:08:15.560Z,94.60
2018-11-11T03:10:44.084Z,94.80
2018-11-11T03:13:12.599Z,95.05
2018-11-11T03:15:41.175Z,94.99
2018-11-11T03:18:09.747Z,94.87
2018-11-11T03:20:38.361Z,95.52
2018-11-11T03:23:06.939Z,95.44
2018-11-11T03:25:35.493Z,95.22
2018-11-11T03:28:04.034Z,95.41
2018-11-11T03:30:32.581Z,95.37
2018-11-11T03:33:01.724Z,94.65
2018-11-11T03:35:30.218Z,94.81
2018-11-11T03:37:58.774Z,94.47
2018-11-11T03:40:27.255Z,94.14
2018-11-11T03:42:55.784Z,94.79
2018-11-11T03:45:24.450Z,94.62
2018-11-11T03:47:53.225Z,94.32
2018-11-11T03:50:21.735Z,94.51
2018-11-11T03:52:50.311Z,94.31
2018-11-11T03:55:18.978Z,94.79
2018-11-11T03:57:47.464Z,94.56
2018-11-11T04:00:16.684Z,94.97
2018-11-11T04:02:45.268Z,95.13
2018-11-11T04:05:15.147Z,95.03
2018-11-11T04:07:43.673Z,95.72
2018-11-11T04:10:14.303Z,95.35
2018-11-11T04:12:43.087Z,94.49
2018-11-11T04:15:12.983Z,93.42
2018-11-11T04:17:41.578Z,93.15
2018-11-11T04:20:12.247Z,93.36
2018-11-11T04:22:40.924Z,92.36
2018-11-11T04:25:09.525Z,92.63
2018-11-11T04:27:38.083Z,92.45
2018-11-11T04:30:07.248Z,91.69
2018-11-11T04:32:35.805Z,91.73
2018-11-11T04:35:04.527Z,91.73
2018-11-11T04:37:32.988Z,91.14
2018-11-11T04:40:01.493Z,90.31
2018-11-11T04:42:29.961Z,90.42
2018-11-11T04:44:58.560Z,90.26
2018-11-11T04:47:27.078Z,90.98
2018-11-11T04:49:55.629Z,90.55
2018-11-11T04:52:24.198Z,90.54
2018-11-11T04:54:52.738Z,90.17
2018-11-11T04:57:21.251Z,90.63
2018-11-11T04:59:49.747Z,89.91
2018-11-11T05:02:18.226Z,89.36
2018-11-11T05:04:46.831Z,89.31
2018-11-11T05:07:15.291Z,88.83
2018-11-11T05:09:43.882Z,89.35
2018-11-11T05:12:12.354Z,88.64
2018-11-11T05:14:40.842Z,88.51
2018-11-11T05:17:09.352Z,88.46
2018-11-11T05:19:37.853Z,88.91
2018-11-11T05:22:06.996Z,89.05
2018-11-11T05:24:35.525Z,88.75
2018-11-11T05:27:04.098Z,88.52
2018-11-11T05:29:32.821Z,88.10
2018-11-11T05:32:01.327Z,88.03
2018-11-11T05:34:29.834Z,88.12
2018-11-11T05:36:58.314Z,87.73
2018-11-11T05:39:26.825Z,87.77
2018-11-11T05:41:55.358Z,87.45
2018-11-11T05:44:23.917Z,86.78
2018-11-11T05:46:52.439Z,86.97
2018-11-11T05:49:20.962Z,86.81
2018-11-11T05:51:49.438Z,86.72
2018-11-11T05:54:17.901Z,87.14
2018-11-11T05:56:46.394Z,86.59
2018-11-11T05:59:14.915Z,86.72
2018-11-11T06:01:43.526Z,85.91
2018-11-11T06:04:11.998Z,85.78
2018-11-11T06:06:40.470Z,85.90
2018-11-11T06:09:09.926Z,85.73
2018-11-11T06:11:38.901Z,86.36
2018-11-11T06:14:07.483Z,86.44
2018-11-11T06:16:36.281Z,87.27
2018-11-11T06:19:04.850Z,86.25
2018-11-11T06:21:33.336Z,86.61
2018-11-11T06:24:01.815Z,87.21
2018-11-11T06:26:30.334Z,86.56
2018-11-11T06:28:58.782Z,86.98
2018-11-11T06:31:27.344Z,87.02
2018-11-11T06:33:55.955Z,86.72
2018-11-11T06:36:24.396Z,86.83
2018-11-11T06:38:52.902Z,87.70
2018-11-11T06:41:21.373Z,87.82
2018-11-11T06:43:50.030Z,87.63
2018-11-11T06:46:18.488Z,87.95
2018-11-11T06:48:47.110Z,88.63
2018-11-11T06:51:15.742Z,88.88
2018-11-11T06:53:44.325Z,88.91
2018-11-11T06:56:12.834Z,89.19
2018-11-11T06:58:41.328Z,89.71
2018-11-11T07:01:09.806Z,89.83
2018-11-11T07:04:00.613Z,89.95
2018-11-11T07:06:29.877Z,90.09
2018-11-11T07:08:58.518Z,90.23
2018-11-11T07:11:27.006Z,90.41
2018-11-11T07:13:55.540Z,90.71
2018-11-11T07:16:24.041Z,90.82
2018-11-11T07:18:52.542Z,91.28
2018-11-11T07:21:21.049Z,90.89
2018-11-11T07:23:49.721Z,90.86
2018-11-11T07:26:18.145Z,91.09
2018-11-11T07:28:46.656Z,90.82
2018-11-11T07:31:15.121Z,91.12
2018-11-11T07:33:43.613Z,91.43
2018-11-11T07:36:12.279Z,91.22
2018-11-11T07:38:40.729Z,91.13
2018-11-11T07:41:09.703Z,90.77
2018-11-11T07:43:38.646Z,91.04
2018-11-11T07:46:07.204Z,90.86
2018-11-11T07:48:35.753Z,90.69
2018-11-11T07:51:04.370Z,91.26
2018-11-11T07:53:32.950Z,90.92
2018-11-11T07:56:01.574Z,91.33
2018-11-11T07:58:30.170Z,91.06
2018-11-11T08:00:58.754Z,91.40
2018-11-11T08:03:27.261Z,91.48
2018-11-11T08:05:55.809Z,91.77
2018-11-11T08:08:24.318Z,92.24
2018-11-11T08:11:03.923Z,91.99
2018-11-11T08:13:32.422Z,91.63
2018-11-11T08:16:00.959Z,91.56
2018-11-11T08:18:29.531Z,91.72
2018-11-11T08:20:58.090Z,91.07
2018-11-11T08:23:26.586Z,90.75
2018-11-11T08:25:55.129Z,90.60
2018-11-11T08:28:23.706Z,91.11
2018-11-11T08:30:52.226Z,91.15
2018-11-11T08:33:20.719Z,91.15
2018-11-11T08:35:49.207Z,90.66
2018-11-11T08:38:17.842Z,90.02
2018-11-11T08:40:46.385Z,90.00
2018-11-11T08:43:14.829Z,91.24
2018-11-11T08:45:43.409Z,91.34
2018-11-11T08:48:11.941Z,91.32
2018-11-11T08:50:40.435Z,90.49
2018-11-11T08:53:08.934Z,90.66
2018-11-11T08:55:37.497Z,89.71
2018-11-11T08:58:06.163Z,89.47
2018-11-11T09:00:34.600Z,89.17
2018-11-11T09:03:03.159Z,89.18
2018-11-11T09:05:31.633Z,88.98
2018-11-11T09:08:00.195Z,88.73
2018-11-11T09:10:28.654Z,88.89
2018-11-11T09:12:57.147Z,88.64
2018-11-11T09:15:25.756Z,88.80
2018-11-11T09:17:54.233Z,88.28
2018-11-11T09:20:22.877Z,87.90
2018-11-11T09:22:51.415Z,88.07
2018-11-11T09:25:20.039Z,87.94
2018-11-11T09:27:48.641Z,87.60
2018-11-11T09:30:17.268Z,87.09
2018-11-11T09:32:45.801Z,87.50
2018-11-11T09:35:14.350Z,87.21
2018-11-11T09:37:43.494Z,86.74
2018-11-11T09:40:13.101Z,86.89
2018-11-11T09:42:41.784Z,87.44
2018-11-11T09:45:12.334Z,86.57
2018-11-11T09:47:41.161Z,87.10
2018-11-11T09:50:11.590Z,86.23
2018-11-11T09:52:40.342Z,85.48
2018-11-11T09:55:09.845Z,84.85
2018-11-11T09:57:38.977Z,85.62
2018-11-11T10:07:23.478Z,82.07
2018-11-11T10:10:02.204Z,80.62
2018-11-11T10:13:36.137Z,79.28
2018-11-11T10:16:40.909Z,77.96
2018-11-11T10:19:15.212Z,78.59
2018-11-11T10:21:55.988Z,78.27
2018-11-11T10:24:32.674Z,79.52
2018-11-11T10:27:05.859Z,80.59
2018-11-11T10:29:42.736Z,80.34
2018-11-11T10:32:26.876Z,79.23
2018-11-11T10:35:32.005Z,79.55
2018-11-11T10:38:05.914Z,78.81
2018-11-11T10:40:42.870Z,78.79
2018-11-11T10:43:16.730Z,78.35
2018-11-11T10:45:52.942Z,78.09
2018-11-11T10:48:25.161Z,77.90
2018-11-11T10:50:57.927Z,77.11
2018-11-11T10:53:26.653Z,77.14
2018-11-11T10:55:55.777Z,78.11
2018-11-11T10:58:24.654Z,78.04
2018-11-11T11:01:57.363Z,77.63
2018-11-11T11:04:26.728Z,77.38
2018-11-11T11:07:00.533Z,77.85
2018-11-11T11:09:29.190Z,77.25
2018-11-11T11:11:58.093Z,78.47
2018-11-11T11:14:26.961Z,78.42
2018-11-11T11:16:55.757Z,77.98
2018-11-11T11:19:24.392Z,76.26
2018-11-11T11:21:53.347Z,76.05
2018-11-11T11:24:22.251Z,75.22
2018-11-11T11:26:52.677Z,75.77
2018-11-11T11:29:22.432Z,76.29
2018-11-11T11:31:51.215Z,73.86
2018-11-11T11:34:19.812Z,73.76
2018-11-11T11:36:49.624Z,72.83
2018-11-11T11:39:18.184Z,73.72
2018-11-11T11:41:46.749Z,73.84
2018-11-11T11:44:15.335Z,73.68
2018-11-11T11:46:43.821Z,73.76
2018-11-11T11:49:12.415Z,74.96
2018-11-11T11:51:41.571Z,75.92
2018-11-11T11:54:10.167Z,75.39
2018-11-11T11:56:39.047Z,75.30
2018-11-11T11:59:07.738Z,75.05
2018-11-11T12:01:36.374Z,74.44
2018-11-11T12:04:05.303Z,74.28
2018-11-11T12:06:33.843Z,74.55
2018-11-11T12:09:02.480Z,74.58
2018-11-11T12:11:31.163Z,74.71
2018-11-11T12:13:59.757Z,74.73
2018-11-11T12:16:28.321Z,73.77
2018-11-11T12:18:56.878Z,73.15
2018-11-11T12:21:25.410Z,73.22
2018-11-11T12:23:53.889Z,71.93
2018-11-11T12:26:22.807Z,71.71
2018-11-11T12:28:51.374Z,71.87
2018-11-11T12:31:19.870Z,72.28
2018-11-11T12:33:48.770Z,71.67
2018-11-11T12:36:17.285Z,71.82
2018-11-11T12:38:45.861Z,72.60
2018-11-11T12:41:14.403Z,71.00
2018-11-11T12:43:43.101Z,72.14
2018-11-11T12:46:11.608Z,71.83
2018-11-11T12:48:40.189Z,71.51
2018-11-11T12:51:08.782Z,72.23
2018-11-11T12:53:37.517Z,72.17
2018-11-11T12:56:06.557Z,72.49
2018-11-11T12:58:35.623Z,72.31
2018-11-11T13:01:04.191Z,72.87
2018-11-11T13:03:32.739Z,72.70
2018-11-11T13:06:01.296Z,72.76
2018-11-11T13:08:30.410Z,73.63
2018-11-11T13:10:58.910Z,73.33
2018-11-11T13:13:28.522Z,72.33
2018-11-11T13:15:57.113Z,72.82
2018-11-11T13:18:25.693Z,72.25
2018-11-11T13:20:54.283Z,72.89
2018-11-11T13:23:23.390Z,72.72
2018-11-11T13:25:52.092Z,72.27
2018-11-11T13:28:20.613Z,71.89
2018-11-11T13:30:51.412Z,71.60
2018-11-11T13:33:20.434Z,71.86
2018-11-11T13:35:49.002Z,72.58
2018-11-11T13:38:18.889Z,72.53
2018-11-11T13:40:47.394Z,72.50
2018-11-11T13:43:15.968Z,72.26
2018-11-11T13:45:44.470Z,73.24
2018-11-11T13:48:13.066Z,72.74
2018-11-11T13:50:41.679Z,73.91
2018-11-11T13:53:16.870Z,74.37
2018-11-11T13:55:45.439Z,73.90
2018-11-11T13:58:13.985Z,73.56
2018-11-11T14:00:42.555Z,73.80
2018-11-11T14:03:11.098Z,73.22
2018-11-11T14:05:39.637Z,74.35
2018-11-11T14:08:08.297Z,74.90
2018-11-11T14:10:36.949Z,74.97
2018-11-11T14:13:05.757Z,74.95
2018-11-11T14:15:34.289Z,74.13
2018-11-11T14:18:02.902Z,74.43
2018-11-11T14:20:31.641Z,76.19
2018-11-11T14:23:00.525Z,76.63
2018-11-11T14:25:30.356Z,77.26
2018-11-11T14:28:00.016Z,77.62
2018-11-11T14:30:30.604Z,78.62
2018-11-11T14:33:00.696Z,77.87
2018-11-11T14:35:30.398Z,79.21
2018-11-11T14:37:59.025Z,79.00
2018-11-11T14:40:29.913Z,79.77
2018-11-11T14:42:59.133Z,80.31
2018-11-11T14:45:29.034Z,80.70
2018-11-11T14:47:59.242Z,80.67
2018-11-11T14:50:28.605Z,80.64
2018-11-11T14:52:57.524Z,80.26
2018-11-11T14:55:31.018Z,80.55
2018-11-11T14:58:00.671Z,79.87
2018-11-11T15:00:31.455Z,80.41
2018-11-11T15:03:16.473Z,80.74
2018-11-11T15:05:45.135Z,80.58
2018-11-11T15:08:14.627Z,81.49
2018-11-11T15:10:43.603Z,81.17
2018-11-11T15:13:13.258Z,81.23
2018-11-11T15:15:41.889Z,81.38
2018-11-11T15:18:11.157Z,81.64
2018-11-11T15:20:40.447Z,81.97
2018-11-11T15:25:37.641Z,82.13
2018-11-11T15:28:07.017Z,82.03
2018-11-11T15:30:36.712Z,81.89
2018-11-11T15:33:05.885Z,82.72
2018-11-11T15:35:35.574Z,82.38
2018-11-11T15:38:04.283Z,83.08
2018-11-11T15:40:34.269Z,83.49
2018-11-11T15:43:03.247Z,84.07
2018-11-11T15:45:34.391Z,84.13
2018-11-11T15:48:03.310Z,84.61
2018-11-11T15:50:32.954Z,84.65
2018-11-11T15:53:05.079Z,84.96
2018-11-11T15:55:34.796Z,84.91
2018-11-11T15:58:03.444Z,85.87
2018-11-11T16:00:34.509Z,85.74
2018-11-11T16:03:05.146Z,85.56
2018-11-11T16:05:34.740Z,85.88
2018-11-11T16:08:03.732Z,85.88
2018-11-11T16:10:33.011Z,85.79
2018-11-11T16:13:01.538Z,86.48
2018-11-11T16:15:32.299Z,85.93
2018-11-11T16:18:02.579Z,87.93
2018-11-11T16:20:31.758Z,89.62
2018-11-11T16:23:01.414Z,91.02
2018-11-11T16:25:30.639Z,91.19
2018-11-11T16:28:00.996Z,91.94
2018-11-11T16:30:31.040Z,92.14
2018-11-11T16:33:01.477Z,92.65
2018-11-11T16:35:30.943Z,93.03
2018-11-11T16:38:00.018Z,92.67
2018-11-11T16:40:30.025Z,93.23
2018-11-11T16:42:58.844Z,92.42
2018-11-11T16:45:29.411Z,92.09
2018-11-11T16:47:58.341Z,92.10
2018-11-11T16:50:28.853Z,91.44
2018-11-11T16:52:59.503Z,91.27
2018-11-11T16:55:29.190Z,91.82
2018-11-11T16:57:58.887Z,91.79
2018-11-11T17:00:29.645Z,92.08
2018-11-11T17:02:59.326Z,92.99
2018-11-11T17:05:29.441Z,92.10
2018-11-11T17:08:02.081Z,92.71
2018-11-11T17:10:32.877Z,92.95
2018-11-11T17:13:03.194Z,93.32
2018-11-11T17:15:32.566Z,93.20
2018-11-11T17:18:02.168Z,93.11
2018-11-11T17:20:31.262Z,92.50
2018-11-11T17:23:01.676Z,92.88
2018-11-11T17:25:30.437Z,93.52
2018-11-11T17:27:59.116Z,93.38
2018-11-11T17:30:29.797Z,93.22
2018-11-11T17:32:59.031Z,93.61
2018-11-11T17:35:27.490Z,93.30
2018-11-11T17:37:57.061Z,93.11
2018-11-11T17:40:27.397Z,93.49
2018-11-11T17:42:56.498Z,93.73
2018-11-11T17:45:25.061Z,93.59
2018-11-11T17:47:54.213Z,93.58
2018-11-11T17:50:24.204Z,93.62
2018-11-11T17:52:52.782Z,93.20
2018-11-11T17:55:22.574Z,93.27
2018-11-11T17:57:51.906Z,93.45
2018-11-11T18:00:21.929Z,93.09
2018-11-11T18:02:50.650Z,92.40
2018-11-11T18:05:20.601Z,92.68
2018-11-11T18:07:49.187Z,92.63
2018-11-11T18:10:19.098Z,92.64
2018-11-11T18:12:47.569Z,92.75
2018-11-11T18:15:18.170Z,92.28
2018-11-11T18:17:46.727Z,92.11
2018-11-11T18:20:18.758Z,92.86
2018-11-11T18:22:48.313Z,92.31
2018-11-11T18:25:16.969Z,92.62
2018-11-11T18:27:45.557Z,92.35
2018-11-11T18:30:18.738Z,92.64
2018-11-11T18:32:47.545Z,92.39
2018-11-11T18:35:17.131Z,93.08
2018-11-11T18:37:46.334Z,93.44
2018-11-11T18:40:16.230Z,93.32
2018-11-11T18:42:45.020Z,93.25
2018-11-11T18:45:14.958Z,92.93
2018-11-11T18:47:44.472Z,93.37
2018-11-11T18:50:18.570Z,93.72
2018-11-11T18:52:47.278Z,93.43
2018-11-11T18:55:16.589Z,93.68
2018-11-11T18:57:46.904Z,93.90
2018-11-11T19:03:31.966Z,93.77
2018-11-11T19:06:00.693Z,94.56
2018-11-11T19:08:29.955Z,94.61
2018-11-11T19:10:59.416Z,94.93
2018-11-11T19:13:28.561Z,94.77
2018-11-11T19:15:57.558Z,95.03
2018-11-11T19:18:26.720Z,95.49
2018-11-11T19:20:56.407Z,95.20
2018-11-11T19:23:26.590Z,95.36
2018-11-11T19:25:55.819Z,94.48
2018-11-11T19:28:24.899Z,94.66
2018-11-11T19:30:54.701Z,95.09
2018-11-11T19:33:23.585Z,95.38
2018-11-11T19:35:53.411Z,95.81
2018-11-11T19:38:22.430Z,95.91
2018-11-11T19:40:51.375Z,96.01
2018-11-11T19:43:20.749Z,95.77
2018-11-11T19:45:49.882Z,95.84
2018-11-11T19:48:18.811Z,95.11
2018-11-11T19:50:48.577Z,95.59
2018-11-11T19:53:17.428Z,95.57
2018-11-11T19:55:46.680Z,94.98
2018-11-11T19:58:15.870Z,94.93
2018-11-11T20:00:44.799Z,95.18
2018-11-11T20:03:13.742Z,94.96
2018-11-11T20:05:43.609Z,95.12
2018-11-11T20:08:12.835Z,95.81
2018-11-11T20:10:41.679Z,96.04
2018-11-11T20:13:11.582Z,95.77
2018-11-11T20:15:40.918Z,95.56
2018-11-11T20:18:09.933Z,95.07
2018-11-11T20:20:39.842Z,95.57
2018-11-11T20:23:08.638Z,95.46
2018-11-11T20:25:37.502Z,95.05
2018-11-11T20:28:06.681Z,95.55
2018-11-11T20:30:37.153Z,95.98
2018-11-11T20:33:07.386Z,95.82
2018-11-11T20:35:36.435Z,95.49
2018-11-11T20:38:06.883Z,96.12
2018-11-11T20:40:35.639Z,96.00
2018-11-11T20:43:04.477Z,96.30
2018-11-11T20:45:34.045Z,95.90
2018-11-11T20:48:02.754Z,96.11
2018-11-11T20:50:33.753Z,96.16
2018-11-11T20:53:04.244Z,96.74
2018-11-11T20:55:33.136Z,96.75
2018-11-11T20:58:03.218Z,96.90
2018-11-11T21:00:35.137Z,96.67
2018-11-11T21:03:04.417Z,96.84
2018-11-11T21:05:34.517Z,97.10
2018-11-11T21:08:03.828Z,97.04
2018-11-11T21:10:33.090Z,96.80
2018-11-11T21:13:02.261Z,97.29
2018-11-11T21:15:32.032Z,96.78
2018-11-11T21:18:01.728Z,97.77
2018-11-11T21:20:31.804Z,97.68
2018-11-11T21:23:01.034Z,97.43
2018-11-11T21:25:31.371Z,97.84
2018-11-11T21:28:00.760Z,97.74
2018-11-11T21:30:31.652Z,97.92
2018-11-11T21:33:01.410Z,97.87
2018-11-11T21:35:31.217Z,97.77
2018-11-11T21:38:00.777Z,97.77
2018-11-11T21:40:29.811Z,97.79
2018-11-11T21:42:59.318Z,97.92
2018-11-11T21:45:30.022Z,98.10
2018-11-11T21:47:58.908Z,98.32
2018-11-11T21:50:29.131Z,98.35
2018-11-11T21:53:34.998Z,97.95
2018-11-11T21:56:04.525Z,98.49
2018-11-11T21:58:33.878Z,98.25
2018-11-11T22:01:03.663Z,98.28
2018-11-11T22:03:32.595Z,98.15
2018-11-11T22:06:01.295Z,98.46
2018-11-11T22:08:29.894Z,98.67
2018-11-11T22:10:58.434Z,98.73
2018-11-11T22:13:27.573Z,98.65
2018-11-11T22:15:56.449Z,98.67
2018-11-11T22:18:24.895Z,98.25
2018-11-11T22:20:53.942Z,98.25
2018-11-11T22:23:22.528Z,98.67
2018-11-11T22:25:51.080Z,98.44
2018-11-11T22:28:19.633Z,98.76
2018-11-11T22:30:48.199Z,98.49
2018-11-11T22:33:16.751Z,98.02
2018-11-11T22:35:45.267Z,98.40
2018-11-11T22:38:13.779Z,98.53
2018-11-11T22:40:42.273Z,98.49
2018-11-11T22:43:10.781Z,98.27
2018-11-11T22:45:39.399Z,98.18
2018-11-11T22:48:08.127Z,98.52
2018-11-11T22:50:36.673Z,98.60
2018-11-11T22:53:05.293Z,98.40
2018-11-11T22:55:34.055Z,98.10
2018-11-11T22:58:02.554Z,98.54
2018-11-11T23:00:32.016Z,98.75
2018-11-11T23:03:00.810Z,98.75
2018-11-11T23:05:29.938Z,99.08
2018-11-11T23:07:58.469Z,99.24
2018-11-11T23:10:27.021Z,99.09
2018-11-11T23:12:56.169Z,98.95
2018-11-11T23:15:24.730Z,99.13
2018-11-11T23:17:53.254Z,98.76
2018-11-11T23:20:22.034Z,99.28
2018-11-11T23:22:50.725Z,99.35
2018-11-11T23:25:19.410Z,99.80
2018-11-11T23:27:47.934Z,99.58
2018-11-11T23:30:21.122Z,99.95
2018-11-11T23:32:49.936Z,100.00
2018-11-11T23:35:18.678Z,99.46
2018-11-11T23:37:47.464Z,99.79
2018-11-11T23:40:17.181Z,99.70
2018-11-11T23:42:46.377Z,99.70
2018-11-11T23:45:14.913Z,99.88
2018-11-11T23:47:43.602Z,99.50
2018-11-11T23:50:19.394Z,99.75
2018-11-11T23:52:49.087Z,99.53
2018-11-11T23:55:18.565Z,99.50
2018-11-11T23:57:47.281Z,99.65
